createdAt,value
2022-09-03T00:01:25.403Z,17.30
2022-09-03T00:04:01.918Z,17.30
2022-09-03T00:06:38.198Z,17.20
2022-09-03T00:09:29.732Z,17.20
2022-09-03T00:12:05.231Z,17.20
2022-09-03T00:14:40.187Z,17.10
2022-09-03T00:17:32.384Z,17.10
2022-09-03T00:20:12.130Z,17.10
2022-09-03T00:22:52.031Z,17.10
2022-09-03T00:25:25.056Z,17.10
2022-09-03T00:27:57.618Z,17.10
2022-09-03T00:30:24.779Z,17.10
2022-09-03T00:33:05.753Z,17.00
2022-09-03T00:35:43.375Z,17.00
2022-09-03T00:38:10.136Z,17.00
2022-09-03T00:41:06.882Z,17.00
2022-09-03T00:44:05.226Z,17.00
2022-09-03T00:46:48.867Z,17.00
2022-09-03T00:49:29.369Z,17.00
2022-09-03T00:52:11.306Z,16.90
2022-09-03T00:55:10.149Z,16.90
2022-09-03T00:58:08.517Z,16.90
2022-09-03T01:00:43.578Z,16.90
2022-09-03T01:03:17.085Z,16.90
2022-09-03T01:06:03.522Z,16.80
2022-09-03T01:08:46.572Z,16.80
2022-09-03T01:11:49.265Z,16.80
2022-09-03T01:14:48.066Z,16.80
2022-09-03T01:17:17.637Z,16.80
2022-09-03T01:20:03.241Z,16.70
2022-09-03T01:22:42.133Z,16.70
2022-09-03T01:25:17.764Z,16.70
2022-09-03T01:28:13.409Z,16.70
2022-09-03T01:30:48.295Z,16.60
2022-09-03T01:33:35.464Z,16.60
2022-09-03T01:36:11.094Z,16.60
2022-09-03T01:38:52.655Z,16.50
2022-09-03T01:42:10.545Z,16.50
2022-09-03T01:44:53.930Z,16.50
2022-09-03T01:47:26.519Z,16.50
2022-09-03T01:50:05.418Z,16.50
2022-09-03T01:52:50.721Z,16.40
2022-09-03T01:55:57.971Z,16.40
2022-09-03T01:58:35.042Z,16.40
2022-09-03T02:01:18.262Z,16.40
2022-09-03T02:03:46.996Z,16.40
2022-09-03T02:06:13.989Z,16.40
2022-09-03T02:08:41.841Z,16.40
2022-09-03T02:11:09.947Z,16.30
2022-09-03T02:13:43.877Z,16.30
2022-09-03T02:16:14.782Z,16.30
2022-09-03T02:18:51.682Z,16.30
2022-09-03T02:21:21.291Z,16.30
2022-09-03T02:23:49.303Z,16.30
2022-09-03T02:26:21.625Z,16.30
2022-09-03T02:28:49.501Z,16.30
2022-09-03T02:31:16.368Z,16.30
2022-09-03T02:33:46.257Z,16.30
2022-09-03T02:36:16.584Z,16.30
2022-09-03T02:38:45.717Z,16.30
2022-09-03T02:41:14.084Z,16.30
2022-09-03T02:43:52.199Z,16.30
2022-09-03T02:46:25.578Z,16.30
2022-09-03T02:48:53.400Z,16.30
2022-09-03T02:51:20.162Z,16.30
2022-09-03T02:53:47.006Z,16.30
2022-09-03T02:56:13.965Z,16.30
2022-09-03T02:58:41.282Z,16.30
2022-09-03T03:01:08.241Z,16.30
2022-09-03T03:03:35.199Z,16.30
2022-09-03T03:06:05.409Z,16.40
2022-09-03T03:08:34.787Z,16.40
2022-09-03T03:11:01.982Z,16.40
2022-09-03T03:13:30.453Z,16.40
2022-09-03T03:16:02.415Z,16.40
2022-09-03T03:18:29.944Z,16.40
2022-09-03T03:20:56.622Z,16.50
2022-09-03T03:23:23.753Z,16.50
2022-09-03T03:25:50.469Z,16.50
2022-09-03T03:28:20.305Z,16.50
2022-09-03T03:30:48.574Z,16.50
2022-09-03T03:33:15.613Z,16.50
2022-09-03T03:35:42.710Z,16.50
2022-09-03T03:38:10.008Z,16.50
2022-09-03T03:40:38.788Z,16.50
2022-09-03T03:43:23.928Z,16.50
2022-09-03T03:46:00.354Z,16.50
2022-09-03T03:48:27.377Z,16.60
2022-09-03T03:50:54.232Z,16.60
2022-09-03T03:53:21.084Z,16.60
2022-09-03T03:55:58.794Z,16.60
2022-09-03T03:58:26.510Z,16.70
2022-09-03T04:00:53.535Z,16.70
2022-09-03T04:03:21.246Z,16.70
2022-09-03T04:05:59.184Z,16.80
2022-09-03T04:08:26.702Z,16.80
2022-09-03T04:10:54.281Z,16.80
2022-09-03T04:13:21.000Z,16.80
2022-09-03T04:15:47.740Z,16.80
2022-09-03T04:18:14.442Z,16.80
2022-09-03T04:20:41.204Z,16.90
2022-09-03T04:23:08.206Z,16.90
2022-09-03T04:25:34.886Z,16.90
2022-09-03T04:28:04.733Z,16.90
2022-09-03T04:30:32.070Z,16.90
2022-09-03T04:32:59.775Z,16.90
2022-09-03T04:35:30.065Z,16.90
2022-09-03T04:37:57.921Z,17.00
2022-09-03T04:40:24.833Z,17.00
2022-09-03T04:42:56.221Z,17.00
2022-09-03T04:45:22.982Z,17.00
2022-09-03T04:48:03.781Z,17.00
2022-09-03T04:50:32.961Z,17.00
2022-09-03T04:53:07.063Z,17.00
2022-09-03T04:55:36.682Z,17.00
2022-09-03T04:58:04.401Z,17.00
2022-09-03T05:00:31.249Z,17.00
2022-09-03T05:03:00.863Z,17.00
2022-09-03T05:05:27.753Z,17.00
2022-09-03T05:07:58.457Z,17.00
2022-09-03T05:10:25.193Z,17.00
2022-09-03T05:13:04.746Z,17.00
2022-09-03T05:15:33.017Z,17.00
2022-09-03T05:18:01.936Z,17.10
2022-09-03T05:20:30.106Z,17.00
2022-09-03T05:22:57.576Z,17.10
2022-09-03T05:25:25.062Z,17.20
2022-09-03T05:27:51.793Z,17.20
2022-09-03T05:30:19.080Z,17.30
2022-09-03T05:32:45.992Z,17.30
2022-09-03T05:35:12.736Z,17.40
2022-09-03T05:37:39.991Z,17.40
2022-09-03T05:40:08.778Z,17.50
2022-09-03T05:42:37.873Z,17.50
2022-09-03T05:45:10.895Z,17.60
2022-09-03T05:47:39.721Z,17.60
2022-09-03T05:50:08.718Z,17.70
2022-09-03T05:52:36.414Z,17.80
2022-09-03T05:55:04.217Z,17.90
2022-09-03T05:57:31.017Z,18.00
2022-09-03T05:59:57.834Z,18.10
2022-09-03T06:02:24.792Z,18.20
2022-09-03T06:04:51.561Z,18.20
2022-09-03T06:07:18.325Z,18.30
2022-09-03T06:09:45.301Z,18.40
2022-09-03T06:12:12.018Z,18.50
2022-09-03T06:14:38.812Z,18.50
2022-09-03T06:17:05.745Z,18.60
2022-09-03T06:19:32.434Z,18.70
2022-09-03T06:21:59.433Z,18.70
2022-09-03T06:24:28.321Z,18.80
2022-09-03T06:26:56.496Z,18.90
2022-09-03T06:29:23.453Z,19.00
2022-09-03T06:31:50.737Z,19.10
2022-09-03T06:34:22.663Z,19.10
2022-09-03T06:36:49.537Z,19.20
2022-09-03T06:39:16.759Z,19.30
2022-09-03T06:41:44.809Z,19.40
2022-09-03T06:44:12.266Z,19.40
2022-09-03T06:46:42.499Z,19.50
2022-09-03T06:49:10.916Z,19.60
2022-09-03T06:51:38.970Z,19.60
2022-09-03T06:56:54.838Z,19.70
2022-09-03T06:59:21.523Z,19.70
2022-09-03T07:01:48.416Z,19.80
2022-09-03T07:04:20.347Z,19.90
2022-09-03T07:06:47.838Z,19.90
2022-09-03T07:09:15.717Z,20.00
2022-09-03T07:11:47.993Z,20.00
2022-09-03T07:14:17.453Z,20.10
2022-09-03T07:16:44.473Z,20.20
2022-09-03T07:19:13.332Z,20.30
2022-09-03T07:21:44.049Z,20.30
2022-09-03T07:24:15.296Z,20.40
2022-09-03T07:26:47.201Z,20.50
2022-09-03T07:29:16.045Z,20.60
2022-09-03T07:31:43.813Z,20.70
2022-09-03T07:34:12.924Z,20.70
2022-09-03T07:36:46.875Z,20.80
2022-09-03T07:39:17.948Z,20.90
2022-09-03T07:41:46.090Z,20.90
2022-09-03T07:44:15.413Z,21.00
2022-09-03T07:46:43.580Z,21.00
2022-09-03T07:49:11.286Z,21.10
2022-09-03T07:51:38.945Z,21.10
2022-09-03T07:54:09.213Z,21.20
2022-09-03T07:56:36.968Z,21.30
2022-09-03T07:59:04.605Z,21.40
2022-09-03T08:01:33.048Z,21.50
2022-09-03T08:04:01.560Z,21.70
2022-09-03T08:06:30.049Z,21.80
2022-09-03T08:09:04.450Z,21.90
2022-09-03T08:11:33.231Z,22.00
2022-09-03T08:14:03.116Z,22.00
2022-09-03T08:16:36.545Z,22.10
2022-09-03T08:19:04.068Z,22.20
2022-09-03T08:21:31.289Z,22.20
2022-09-03T08:24:03.089Z,22.30
2022-09-03T08:26:32.250Z,22.30
2022-09-03T08:28:59.856Z,22.40
2022-09-03T08:31:29.241Z,22.40
2022-09-03T08:33:58.998Z,22.50
2022-09-03T08:36:29.934Z,22.50
2022-09-03T08:39:04.805Z,22.60
2022-09-03T08:41:40.823Z,22.60
2022-09-03T08:44:42.240Z,22.70
2022-09-03T08:47:29.801Z,22.80
2022-09-03T08:50:35.334Z,22.80
2022-09-03T08:53:14.678Z,22.80
2022-09-03T08:55:50.671Z,22.90
2022-09-03T08:58:29.562Z,22.90
2022-09-03T09:01:04.206Z,22.90
2022-09-03T09:03:56.803Z,23.00
2022-09-03T09:06:44.883Z,23.00
2022-09-03T09:09:28.306Z,23.20
2022-09-03T09:12:20.481Z,23.30
2022-09-03T09:14:58.173Z,23.40
2022-09-03T09:17:27.955Z,23.60
2022-09-03T09:20:07.012Z,23.80
2022-09-03T09:22:41.882Z,24.00
2022-09-03T09:25:19.224Z,24.20
2022-09-03T09:28:03.018Z,24.40
2022-09-03T09:30:31.653Z,24.60
2022-09-03T09:33:00.609Z,24.80
2022-09-03T09:35:27.617Z,25.10
2022-09-03T09:37:57.760Z,25.40
2022-09-03T09:40:41.444Z,25.80
2022-09-03T09:43:17.346Z,26.20
2022-09-03T09:45:50.152Z,26.60
2022-09-03T09:48:32.733Z,27.00
2022-09-03T09:51:18.752Z,27.70
2022-09-03T09:53:45.522Z,28.20
2022-09-03T09:56:24.617Z,28.70
2022-09-03T09:59:03.498Z,29.30
2022-09-03T10:01:31.957Z,29.80
2022-09-03T10:04:12.309Z,30.20
2022-09-03T10:06:56.694Z,30.60
2022-09-03T10:09:31.538Z,31.00
2022-09-03T10:12:19.642Z,31.30
2022-09-03T10:15:03.778Z,31.60
2022-09-03T10:17:53.622Z,31.90
2022-09-03T10:20:38.949Z,32.10
2022-09-03T10:23:21.194Z,32.20
2022-09-03T10:26:07.600Z,32.30
2022-09-03T10:28:41.128Z,32.20
2022-09-03T10:31:30.067Z,32.10
2022-09-03T10:34:06.524Z,32.00
2022-09-03T10:36:59.770Z,32.00
2022-09-03T10:39:51.662Z,32.00
2022-09-03T10:42:35.081Z,32.20
2022-09-03T10:45:12.252Z,32.60
2022-09-03T10:48:00.958Z,33.10
2022-09-03T10:50:31.926Z,33.80
2022-09-03T10:53:23.368Z,34.30
2022-09-03T10:56:14.928Z,34.50
2022-09-03T10:58:58.765Z,34.50
2022-09-03T11:01:38.066Z,34.20
2022-09-03T11:04:16.899Z,34.00
2022-09-03T11:06:59.557Z,33.70
2022-09-03T11:09:55.079Z,33.30
2022-09-03T11:12:29.427Z,33.00
2022-09-03T11:15:05.472Z,32.60
2022-09-03T11:17:47.240Z,32.30
2022-09-03T11:20:23.707Z,32.00
2022-09-03T11:22:54.358Z,31.70
2022-09-03T11:25:32.442Z,31.40
2022-09-03T11:28:19.319Z,31.30
2022-09-03T11:31:24.025Z,31.10
2022-09-03T11:34:01.573Z,31.00
2022-09-03T11:36:35.412Z,30.90
2022-09-03T11:39:18.022Z,30.90
2022-09-03T11:41:57.429Z,30.80
2022-09-03T11:44:24.381Z,30.80
2022-09-03T11:46:58.855Z,31.00
2022-09-03T11:49:29.968Z,31.20
2022-09-03T11:52:09.882Z,31.50
2022-09-03T11:54:45.637Z,32.00
2022-09-03T11:57:23.809Z,32.50
2022-09-03T11:59:50.525Z,32.80
2022-09-03T12:02:30.949Z,32.90
2022-09-03T12:05:35.593Z,33.00
2022-09-03T12:08:40.641Z,32.80
2022-09-03T12:11:35.957Z,32.60
2022-09-03T12:14:14.184Z,32.20
2022-09-03T12:17:06.699Z,31.80
2022-09-03T12:19:45.327Z,31.40
2022-09-03T12:22:16.940Z,31.00
2022-09-03T12:24:45.139Z,30.70
2022-09-03T12:27:26.785Z,30.60
2022-09-03T12:30:00.507Z,30.70
2022-09-03T12:32:32.223Z,31.00
2022-09-03T12:35:14.385Z,31.30
2022-09-03T12:40:32.804Z,32.00
2022-09-03T12:46:17.627Z,32.50
2022-09-03T12:52:05.973Z,33.10
2022-09-03T12:54:36.871Z,33.20
2022-09-03T12:57:04.300Z,33.30
2022-09-03T12:59:35.466Z,33.30
2022-09-03T13:02:13.731Z,33.20
2022-09-03T13:04:42.632Z,33.20
2022-09-03T13:07:21.364Z,33.30
2022-09-03T13:09:49.099Z,33.30
2022-09-03T13:12:33.351Z,33.30
2022-09-03T13:15:07.702Z,33.30
2022-09-03T13:18:08.663Z,33.10
2022-09-03T13:20:47.470Z,32.90
2022-09-03T13:23:49.106Z,32.70
2022-09-03T13:26:27.420Z,32.40
2022-09-03T13:29:18.010Z,32.10
2022-09-03T13:32:06.145Z,31.90
2022-09-03T13:34:50.463Z,31.70
2022-09-03T13:37:32.386Z,31.50
2022-09-03T13:40:09.937Z,31.30
2022-09-03T13:42:41.549Z,31.10
2022-09-03T13:45:52.539Z,31.00
2022-09-03T13:49:02.179Z,30.80
2022-09-03T13:51:31.207Z,30.70
2022-09-03T13:54:47.691Z,30.60
2022-09-03T13:57:41.444Z,30.60
2022-09-03T14:00:11.656Z,30.50
2022-09-03T14:02:57.215Z,30.30
2022-09-03T14:05:26.976Z,30.30
2022-09-03T14:08:08.105Z,30.30
2022-09-03T14:10:40.934Z,30.30
2022-09-03T14:13:39.429Z,30.30
2022-09-03T14:16:08.532Z,30.30
2022-09-03T14:18:45.062Z,30.30
2022-09-03T14:21:45.311Z,30.30
2022-09-03T14:24:26.697Z,30.20
2022-09-03T14:27:02.336Z,30.10
2022-09-03T14:29:32.286Z,30.10
2022-09-03T14:32:04.584Z,29.90
2022-09-03T14:34:41.847Z,29.90
2022-09-03T14:37:46.255Z,29.80
2022-09-03T14:40:45.037Z,29.80
2022-09-03T14:43:28.020Z,29.80
2022-09-03T14:46:06.337Z,29.80
2022-09-03T14:48:53.196Z,29.80
2022-09-03T14:51:32.538Z,29.80
2022-09-03T14:54:30.778Z,30.10
2022-09-03T14:57:00.922Z,30.40
2022-09-03T15:00:04.818Z,30.50
2022-09-03T15:02:34.896Z,30.70
2022-09-03T15:05:26.949Z,30.70
2022-09-03T15:08:16.765Z,30.70
2022-09-03T15:11:23.571Z,30.60
2022-09-03T15:14:12.132Z,30.50
2022-09-03T15:16:45.045Z,30.50
2022-09-03T15:19:37.028Z,30.40
2022-09-03T15:22:19.021Z,30.30
2022-09-03T15:24:54.321Z,30.20
2022-09-03T15:27:41.141Z,30.10
2022-09-03T15:30:16.432Z,30.00
2022-09-03T15:33:07.155Z,29.90
2022-09-03T15:35:58.392Z,29.80
2022-09-03T15:38:33.120Z,29.70
2022-09-03T15:41:06.773Z,29.60
2022-09-03T15:43:35.221Z,29.60
2022-09-03T15:46:13.575Z,29.60
2022-09-03T15:48:52.080Z,29.60
2022-09-03T15:51:34.049Z,29.50
2022-09-03T15:54:12.664Z,29.50
2022-09-03T15:57:05.250Z,29.40
2022-09-03T15:59:42.617Z,29.40
2022-09-03T16:02:15.213Z,29.40
2022-09-03T16:05:06.952Z,29.30
2022-09-03T16:07:58.052Z,29.30
2022-09-03T16:10:50.888Z,29.40
2022-09-03T16:13:19.423Z,29.40
2022-09-03T16:16:09.561Z,29.40
2022-09-03T16:19:07.990Z,29.30
2022-09-03T16:21:54.809Z,29.30
2022-09-03T16:24:28.762Z,29.10
2022-09-03T16:27:07.490Z,29.00
2022-09-03T16:29:34.497Z,28.90
2022-09-03T16:32:31.786Z,28.80
2022-09-03T16:35:13.638Z,28.70
2022-09-03T16:38:04.598Z,28.50
2022-09-03T16:40:56.850Z,28.40
2022-09-03T16:43:52.133Z,28.30
2022-09-03T16:46:40.138Z,28.30
2022-09-03T16:49:38.625Z,28.10
2022-09-03T16:52:39.774Z,28.10
2022-09-03T16:55:18.578Z,28.00
2022-09-03T16:58:08.170Z,27.90
2022-09-03T17:01:06.480Z,27.70
2022-09-03T17:04:17.741Z,27.60
2022-09-03T17:06:58.525Z,27.50
2022-09-03T17:10:00.626Z,27.40
2022-09-03T17:13:06.569Z,27.20
2022-09-03T17:15:57.565Z,27.10
2022-09-03T17:18:30.770Z,26.90
2022-09-03T17:21:26.298Z,26.80
2022-09-03T17:24:11.589Z,26.70
2022-09-03T17:26:47.376Z,26.50
2022-09-03T17:29:40.439Z,26.40
2022-09-03T17:32:16.837Z,26.30
2022-09-03T17:35:09.756Z,26.20
2022-09-03T17:37:58.207Z,26.10
2022-09-03T17:40:47.364Z,26.00
2022-09-03T17:43:43.635Z,25.90
2022-09-03T17:46:41.300Z,25.70
2022-09-03T17:49:09.272Z,25.60
2022-09-03T17:51:50.383Z,25.50
2022-09-03T17:54:42.658Z,25.30
2022-09-03T17:57:19.902Z,25.30
2022-09-03T17:59:55.506Z,25.10
2022-09-03T18:02:39.048Z,25.00
2022-09-03T18:05:24.294Z,25.00
2022-09-03T18:08:30.112Z,24.90
2022-09-03T18:11:13.822Z,24.80
2022-09-03T18:13:43.625Z,24.70
2022-09-03T18:16:24.059Z,24.70
2022-09-03T18:18:52.800Z,24.60
2022-09-03T18:21:44.001Z,24.60
2022-09-03T18:24:41.088Z,24.60
2022-09-03T18:27:45.966Z,24.60
2022-09-03T18:30:33.905Z,24.50
2022-09-03T18:33:19.503Z,24.60
2022-09-03T18:36:05.897Z,24.50
2022-09-03T18:38:53.659Z,24.40
2022-09-03T18:41:48.897Z,24.40
2022-09-03T18:45:06.579Z,24.30
2022-09-03T18:48:19.676Z,24.30
2022-09-03T18:51:30.132Z,24.20
2022-09-03T18:55:04.257Z,24.10
2022-09-03T18:58:14.966Z,24.00
2022-09-03T19:01:27.235Z,23.90
2022-09-03T19:04:21.317Z,23.80
2022-09-03T19:07:26.381Z,23.70
2022-09-03T19:10:39.197Z,23.60
2022-09-03T19:13:30.559Z,23.50
2022-09-03T19:16:28.562Z,23.40
2022-09-03T19:19:30.408Z,23.40
2022-09-03T19:22:28.033Z,23.30
2022-09-03T19:25:23.542Z,23.20
2022-09-03T19:28:30.740Z,23.10
2022-09-03T19:31:30.701Z,23.00
2022-09-03T19:34:28.033Z,22.90
2022-09-03T19:37:23.452Z,22.80
2022-09-03T19:40:39.386Z,22.70
2022-09-03T19:43:27.856Z,22.70
2022-09-03T19:46:28.568Z,22.60
2022-09-03T19:49:24.381Z,22.50
2022-09-03T19:52:25.583Z,22.50
2022-09-03T19:55:13.945Z,22.40
2022-09-03T19:58:25.877Z,22.30
2022-09-03T20:01:13.406Z,22.20
2022-09-03T20:04:00.067Z,22.20
2022-09-03T20:06:46.305Z,22.10
2022-09-03T20:09:35.763Z,22.00
2022-09-03T20:12:08.387Z,21.90
2022-09-03T20:14:37.613Z,21.90
2022-09-03T20:17:07.528Z,21.80
2022-09-03T20:19:41.310Z,21.70
2022-09-03T20:22:21.962Z,21.70
2022-09-03T20:25:08.064Z,21.60
2022-09-03T20:27:46.489Z,21.50
2022-09-03T20:30:19.386Z,21.50
2022-09-03T20:32:58.971Z,21.40
2022-09-03T20:35:49.696Z,21.30
2022-09-03T20:38:32.797Z,21.30
2022-09-03T20:41:32.221Z,21.20
2022-09-03T20:44:22.387Z,21.20
2022-09-03T20:47:02.501Z,21.10
2022-09-03T20:49:40.800Z,21.00
2022-09-03T20:52:18.614Z,21.00
2022-09-03T20:55:17.548Z,20.90
2022-09-03T20:58:08.730Z,20.90
2022-09-03T21:00:52.279Z,20.90
2022-09-03T21:03:24.508Z,20.80
2022-09-03T21:06:20.233Z,20.70
2022-09-03T21:08:47.233Z,20.70
2022-09-03T21:11:28.757Z,20.70
2022-09-03T21:14:18.621Z,20.60
2022-09-03T21:17:09.382Z,20.60
2022-09-03T21:20:07.977Z,20.60
2022-09-03T21:23:09.290Z,20.60
2022-09-03T21:25:46.113Z,20.50
2022-09-03T21:28:21.874Z,20.40
2022-09-03T21:30:53.925Z,20.40
2022-09-03T21:33:26.940Z,20.40
2022-09-03T21:36:25.737Z,20.40
2022-09-03T21:39:00.244Z,20.30
2022-09-03T21:41:33.474Z,20.30
2022-09-03T21:44:16.744Z,20.20
2022-09-03T21:46:54.739Z,20.20
2022-09-03T21:49:38.352Z,20.10
2022-09-03T21:52:14.589Z,20.10
2022-09-03T21:54:41.407Z,20.00
2022-09-03T21:57:30.003Z,20.10
2022-09-03T22:00:09.093Z,20.00
2022-09-03T22:02:41.816Z,20.00
2022-09-03T22:05:08.781Z,19.90
2022-09-03T22:07:57.253Z,19.80
2022-09-03T22:10:39.293Z,19.80
2022-09-03T22:13:29.894Z,19.70
2022-09-03T22:16:18.953Z,19.70
2022-09-03T22:18:47.029Z,19.70
2022-09-03T22:21:44.423Z,19.60
2022-09-03T22:24:24.357Z,19.60
2022-09-03T22:27:00.774Z,19.60
2022-09-03T22:29:51.002Z,19.50
2022-09-03T22:32:45.652Z,19.50
2022-09-03T22:35:26.569Z,19.40
2022-09-03T22:38:06.174Z,19.40
2022-09-03T22:40:35.974Z,19.30
2022-09-03T22:43:23.794Z,19.30
2022-09-03T22:46:09.479Z,19.30
2022-09-03T22:48:59.930Z,19.20
2022-09-03T22:51:37.528Z,19.20
2022-09-03T22:54:10.660Z,19.10
2022-09-03T22:56:41.351Z,19.10
2022-09-03T22:59:12.071Z,19.00
2022-09-03T23:01:57.632Z,19.00
2022-09-03T23:04:38.595Z,19.00
2022-09-03T23:07:18.770Z,18.90
2022-09-03T23:09:57.374Z,18.90
2022-09-03T23:12:44.953Z,18.90
2022-09-03T23:15:19.856Z,18.80
2022-09-03T23:17:54.734Z,18.80
2022-09-03T23:20:28.121Z,18.70
2022-09-03T23:23:03.438Z,18.70
2022-09-03T23:25:37.809Z,18.70
2022-09-03T23:28:10.181Z,18.70
2022-09-03T23:30:37.448Z,18.60
2022-09-03T23:33:04.152Z,18.60
2022-09-03T23:35:47.816Z,18.60
2022-09-03T23:38:26.861Z,18.50
2022-09-03T23:40:59.564Z,18.50
2022-09-03T23:43:51.185Z,18.50
2022-09-03T23:46:32.076Z,18.40
2022-09-03T23:49:38.013Z,18.40
2022-09-03T23:52:29.042Z,18.40
2022-09-03T23:55:22.749Z,18.30
2022-09-03T23:58:15.421Z,18.30
